sensor_id;sensor_type;location;lat;lon;timestamp;pressure;altitude;pressure_sealevel;temperature;humidity
70343;BME280;57767;42.068;24.752;2023-05-07T00:00:27;99154.16;;;14.43;80.39
70343;BME280;57767;42.068;24.752;2023-05-07T00:01:29;99151.50;;;14.43;80.24
70343;BME280;57767;42.068;24.752;2023-05-07T00:02:31;99149.72;;;14.37;79.84
70343;BME280;57767;42.068;24.752;2023-05-07T00:03:34;99147.72;;;14.32;80.19
70343;BME280;57767;42.068;24.752;2023-05-07T00:04:35;99150.31;;;14.39;80.23
70343;BME280;57767;42.068;24.752;2023-05-07T00:05:39;99154.28;;;14.48;80.10
70343;BME280;57767;42.068;24.752;2023-05-07T00:06:41;99150.53;;;14.56;79.98
70343;BME280;57767;42.068;24.752;2023-05-07T00:07:43;99154.91;;;14.62;79.64
70343;BME280;57767;42.068;24.752;2023-05-07T00:08:44;99114.88;;;14.45;79.56
70343;BME280;57767;42.068;24.752;2023-05-07T00:09:46;99153.75;;;14.69;78.56
70343;BME280;57767;42.068;24.752;2023-05-07T00:10:48;99140.03;;;14.73;78.71
70343;BME280;57767;42.068;24.752;2023-05-07T00:11:50;99128.00;;;14.70;78.65
70343;BME280;57767;42.068;24.752;2023-05-07T00:12:51;99133.81;;;14.79;78.73
70343;BME280;57767;42.068;24.752;2023-05-07T00:13:54;99137.63;;;14.83;79.03
70343;BME280;57767;42.068;24.752;2023-05-07T00:14:55;99144.69;;;14.89;79.29
70343;BME280;57767;42.068;24.752;2023-05-07T00:15:57;99141.59;;;14.92;79.04
70343;BME280;57767;42.068;24.752;2023-05-07T00:16:59;99145.66;;;14.94;78.83
70343;BME280;57767;42.068;24.752;2023-05-07T00:18:01;99150.72;;;14.96;78.79
70343;BME280;57767;42.068;24.752;2023-05-07T00:19:03;99155.56;;;14.99;78.31
70343;BME280;57767;42.068;24.752;2023-05-07T00:20:06;99138.72;;;14.93;78.25
70343;BME280;57767;42.068;24.752;2023-05-07T00:21:07;99142.72;;;14.96;78.21
70343;BME280;57767;42.068;24.752;2023-05-07T00:22:09;99140.56;;;14.93;78.23
70343;BME280;57767;42.068;24.752;2023-05-07T00:23:11;99137.41;;;14.96;77.85
70343;BME280;57767;42.068;24.752;2023-05-07T00:24:13;99154.31;;;15.01;78.61
70343;BME280;57767;42.068;24.752;2023-05-07T00:25:15;99141.69;;;14.85;78.89
70343;BME280;57767;42.068;24.752;2023-05-07T00:26:17;99139.94;;;14.79;79.68
70343;BME280;57767;42.068;24.752;2023-05-07T00:27:22;99147.91;;;14.67;80.59
70343;BME280;57767;42.068;24.752;2023-05-07T00:28:23;99149.00;;;14.60;81.09
70343;BME280;57767;42.068;24.752;2023-05-07T00:29:25;99139.81;;;14.44;81.90
70343;BME280;57767;42.068;24.752;2023-05-07T00:30:27;99142.78;;;14.36;82.91
70343;BME280;57767;42.068;24.752;2023-05-07T00:31:29;99143.53;;;14.25;83.26
70343;BME280;57767;42.068;24.752;2023-05-07T00:32:31;99133.13;;;14.23;83.77
70343;BME280;57767;42.068;24.752;2023-05-07T00:33:32;99153.56;;;14.23;84.03
70343;BME280;57767;42.068;24.752;2023-05-07T00:34:34;99146.63;;;14.22;84.26
70343;BME280;57767;42.068;24.752;2023-05-07T00:35:36;99151.22;;;14.15;84.50
70343;BME280;57767;42.068;24.752;2023-05-07T00:36:38;99147.75;;;14.14;84.61
70343;BME280;57767;42.068;24.752;2023-05-07T00:37:39;99152.84;;;14.16;84.82
70343;BME280;57767;42.068;24.752;2023-05-07T00:38:41;99153.28;;;14.13;84.68
70343;BME280;57767;42.068;24.752;2023-05-07T00:39:43;99159.78;;;14.17;84.31
70343;BME280;57767;42.068;24.752;2023-05-07T00:40:45;99155.84;;;14.19;84.18
70343;BME280;57767;42.068;24.752;2023-05-07T00:41:47;99148.13;;;14.18;84.19
70343;BME280;57767;42.068;24.752;2023-05-07T00:42:48;99147.06;;;14.19;83.92
70343;BME280;57767;42.068;24.752;2023-05-07T00:43:51;99157.69;;;14.19;84.00
70343;BME280;57767;42.068;24.752;2023-05-07T00:44:53;99151.88;;;14.10;84.45
70343;BME280;57767;42.068;24.752;2023-05-07T00:45:55;99163.63;;;14.03;84.92
70343;BME280;57767;42.068;24.752;2023-05-07T00:46:57;99163.34;;;13.92;85.89
70343;BME280;57767;42.068;24.752;2023-05-07T00:48:00;99159.88;;;13.92;85.99
70343;BME280;57767;42.068;24.752;2023-05-07T00:49:03;99160.81;;;13.97;86.00
70343;BME280;57767;42.068;24.752;2023-05-07T00:50:07;99140.94;;;13.88;85.37
70343;BME280;57767;42.068;24.752;2023-05-07T00:51:10;99150.66;;;13.94;85.13
70343;BME280;57767;42.068;24.752;2023-05-07T00:52:17;99152.28;;;13.95;85.14
70343;BME280;57767;42.068;24.752;2023-05-07T00:53:19;99143.28;;;13.96;85.32
70343;BME280;57767;42.068;24.752;2023-05-07T00:54:22;99141.66;;;13.95;85.33
70343;BME280;57767;42.068;24.752;2023-05-07T00:55:24;99146.53;;;13.98;85.38
70343;BME280;57767;42.068;24.752;2023-05-07T00:56:26;99157.13;;;13.98;85.48
70343;BME280;57767;42.068;24.752;2023-05-07T00:57:28;99157.56;;;13.95;85.28
70343;BME280;57767;42.068;24.752;2023-05-07T00:58:30;99151.53;;;13.88;85.03
70343;BME280;57767;42.068;24.752;2023-05-07T00:59:32;99148.88;;;13.88;85.03
70343;BME280;57767;42.068;24.752;2023-05-07T01:00:34;99147.91;;;13.83;85.48
70343;BME280;57767;42.068;24.752;2023-05-07T01:01:37;99150.44;;;13.78;85.75
70343;BME280;57767;42.068;24.752;2023-05-07T01:02:39;99152.34;;;13.89;85.72
70343;BME280;57767;42.068;24.752;2023-05-07T01:03:41;99152.06;;;13.97;85.31
70343;BME280;57767;42.068;24.752;2023-05-07T01:04:43;99153.47;;;13.99;85.13
70343;BME280;57767;42.068;24.752;2023-05-07T01:05:46;99151.41;;;14.02;84.57
70343;BME280;57767;42.068;24.752;2023-05-07T01:06:51;99151.19;;;14.03;84.42
70343;BME280;57767;42.068;24.752;2023-05-07T01:07:54;99153.63;;;14.05;83.51
70343;BME280;57767;42.068;24.752;2023-05-07T01:08:57;99144.03;;;14.04;83.28
70343;BME280;57767;42.068;24.752;2023-05-07T01:10:00;99147.97;;;14.13;82.84
70343;BME280;57767;42.068;24.752;2023-05-07T01:11:02;99151.81;;;14.17;82.31
70343;BME280;57767;42.068;24.752;2023-05-07T01:12:06;99147.75;;;14.14;81.36
70343;BME280;57767;42.068;24.752;2023-05-07T01:13:09;99156.09;;;14.18;80.34
70343;BME280;57767;42.068;24.752;2023-05-07T01:14:11;99145.00;;;14.21;80.16
70343;BME280;57767;42.068;24.752;2023-05-07T01:15:13;99120.63;;;14.12;80.23
70343;BME280;57767;42.068;24.752;2023-05-07T01:16:15;99148.09;;;14.36;80.09
70343;BME280;57767;42.068;24.752;2023-05-07T01:17:18;99160.72;;;14.41;79.87
70343;BME280;57767;42.068;24.752;2023-05-07T01:18:19;99143.75;;;14.42;78.98
70343;BME280;57767;42.068;24.752;2023-05-07T01:19:21;99153.25;;;14.49;78.76
70343;BME280;57767;42.068;24.752;2023-05-07T01:20:23;99128.69;;;14.35;78.32
70343;BME280;57767;42.068;24.752;2023-05-07T01:21:26;99151.63;;;14.48;78.33
70343;BME280;57767;42.068;24.752;2023-05-07T01:22:32;99157.69;;;14.55;77.99
70343;BME280;57767;42.068;24.752;2023-05-07T01:23:35;99154.78;;;14.57;77.81
70343;BME280;57767;42.068;24.752;2023-05-07T01:24:37;99158.59;;;14.61;77.88
70343;BME280;57767;42.068;24.752;2023-05-07T01:25:39;99142.78;;;14.54;77.57
70343;BME280;57767;42.068;24.752;2023-05-07T01:26:42;99151.44;;;14.61;77.24
70343;BME280;57767;42.068;24.752;2023-05-07T01:27:44;99150.63;;;14.61;77.10
70343;BME280;57767;42.068;24.752;2023-05-07T01:28:46;99156.91;;;14.66;76.56
70343;BME280;57767;42.068;24.752;2023-05-07T01:29:48;99146.13;;;14.61;76.92
70343;BME280;57767;42.068;24.752;2023-05-07T01:30:53;99152.41;;;14.67;76.94
70343;BME280;57767;42.068;24.752;2023-05-07T01:31:58;99149.97;;;14.65;76.95
70343;BME280;57767;42.068;24.752;2023-05-07T01:33:04;99152.63;;;14.65;77.03
70343;BME280;57767;42.068;24.752;2023-05-07T01:34:09;99143.47;;;14.61;77.55
70343;BME280;57767;42.068;24.752;2023-05-07T01:35:19;99152.28;;;14.74;77.77
70343;BME280;57767;42.068;24.752;2023-05-07T01:36:22;99149.63;;;14.74;77.79
70343;BME280;57767;42.068;24.752;2023-05-07T01:37:27;99154.94;;;14.74;77.37
70343;BME280;57767;42.068;24.752;2023-05-07T01:38:29;99152.28;;;14.74;77.31
70343;BME280;57767;42.068;24.752;2023-05-07T01:39:32;99157.16;;;14.77;77.00
70343;BME280;57767;42.068;24.752;2023-05-07T01:40:34;99143.50;;;14.73;77.08
70343;BME280;57767;42.068;24.752;2023-05-07T01:41:36;99144.91;;;14.76;77.27
70343;BME280;57767;42.068;24.752;2023-05-07T01:42:38;99142.69;;;14.73;77.22
70343;BME280;57767;42.068;24.752;2023-05-07T01:43:41;99144.69;;;14.77;76.96
70343;BME280;57767;42.068;24.752;2023-05-07T01:44:44;99147.56;;;14.76;77.11
70343;BME280;57767;42.068;24.752;2023-05-07T01:45:45;99150.22;;;14.76;76.61
70343;BME280;57767;42.068;24.752;2023-05-07T01:46:49;99152.44;;;14.79;76.57
70343;BME280;57767;42.068;24.752;2023-05-07T01:47:52;99146.75;;;14.75;75.78
70343;BME280;57767;42.068;24.752;2023-05-07T01:48:54;99150.00;;;14.77;75.24
70343;BME280;57767;42.068;24.752;2023-05-07T01:49:57;99149.19;;;14.77;75.24
70343;BME280;57767;42.068;24.752;2023-05-07T01:50:59;99152.88;;;14.76;75.27
70343;BME280;57767;42.068;24.752;2023-05-07T01:52:02;99152.66;;;14.77;75.42
70343;BME280;57767;42.068;24.752;2023-05-07T01:53:04;99155.66;;;14.81;75.63
70343;BME280;57767;42.068;24.752;2023-05-07T01:54:05;99146.06;;;14.80;75.63
70343;BME280;57767;42.068;24.752;2023-05-07T01:55:08;99153.25;;;14.79;76.20
70343;BME280;57767;42.068;24.752;2023-05-07T01:56:10;99153.47;;;14.78;76.38
70343;BME280;57767;42.068;24.752;2023-05-07T01:57:11;99153.47;;;14.78;76.61
70343;BME280;57767;42.068;24.752;2023-05-07T01:58:13;99157.75;;;14.79;76.71
70343;BME280;57767;42.068;24.752;2023-05-07T01:59:15;99152.44;;;14.79;77.15
70343;BME280;57767;42.068;24.752;2023-05-07T02:00:17;99160.19;;;14.80;77.33
70343;BME280;57767;42.068;24.752;2023-05-07T02:01:20;99154.28;;;14.78;77.50
70343;BME280;57767;42.068;24.752;2023-05-07T02:02:22;99138.41;;;14.72;77.74
70343;BME280;57767;42.068;24.752;2023-05-07T02:03:24;99143.13;;;14.69;77.67
70343;BME280;57767;42.068;24.752;2023-05-07T02:04:26;99144.75;;;14.70;77.88
70343;BME280;57767;42.068;24.752;2023-05-07T02:05:28;99153.31;;;14.73;78.14
70343;BME280;57767;42.068;24.752;2023-05-07T02:06:29;99149.63;;;14.74;78.67
70343;BME280;57767;42.068;24.752;2023-05-07T02:07:32;99145.78;;;14.69;79.01
70343;BME280;57767;42.068;24.752;2023-05-07T02:08:34;99150.06;;;14.70;79.11
70343;BME280;57767;42.068;24.752;2023-05-07T02:09:36;99149.50;;;14.68;79.01
70343;BME280;57767;42.068;24.752;2023-05-07T02:10:38;99150.78;;;14.66;79.46
70343;BME280;57767;42.068;24.752;2023-05-07T02:11:39;99144.88;;;14.64;79.17
70343;BME280;57767;42.068;24.752;2023-05-07T02:12:41;99148.94;;;14.66;79.94
70343;BME280;57767;42.068;24.752;2023-05-07T02:13:44;99144.50;;;14.60;80.10
70343;BME280;57767;42.068;24.752;2023-05-07T02:14:46;99143.69;;;14.60;80.16
70343;BME280;57767;42.068;24.752;2023-05-07T02:15:48;99146.56;;;14.58;80.32
70343;BME280;57767;42.068;24.752;2023-05-07T02:16:52;99143.00;;;14.53;80.41
70343;BME280;57767;42.068;24.752;2023-05-07T02:19:01;99142.19;;;14.52;79.96
70343;BME280;57767;42.068;24.752;2023-05-07T02:20:03;99132.44;;;14.46;79.62
70343;BME280;57767;42.068;24.752;2023-05-07T02:21:06;99141.72;;;14.55;79.84
70343;BME280;57767;42.068;24.752;2023-05-07T02:22:07;99143.34;;;14.56;79.76
70343;BME280;57767;42.068;24.752;2023-05-07T02:23:09;99143.91;;;14.58;79.41
70343;BME280;57767;42.068;24.752;2023-05-07T02:24:11;99147.16;;;14.60;79.21
70343;BME280;57767;42.068;24.752;2023-05-07T02:25:12;99148.34;;;14.64;78.91
70343;BME280;57767;42.068;24.752;2023-05-07T02:26:14;99147.31;;;14.65;78.65
70343;BME280;57767;42.068;24.752;2023-05-07T02:27:16;99137.13;;;14.62;78.83
70343;BME280;57767;42.068;24.752;2023-05-07T02:28:18;99128.19;;;14.57;78.04
70343;BME280;57767;42.068;24.752;2023-05-07T02:29:19;99142.56;;;14.67;78.27
70343;BME280;57767;42.068;24.752;2023-05-07T02:30:21;99146.28;;;14.66;78.07
70343;BME280;57767;42.068;24.752;2023-05-07T02:31:23;99142.81;;;14.66;78.27
70343;BME280;57767;42.068;24.752;2023-05-07T02:32:25;99132.41;;;14.64;78.00
70343;BME280;57767;42.068;24.752;2023-05-07T02:33:27;99141.53;;;14.68;78.05
70343;BME280;57767;42.068;24.752;2023-05-07T02:34:29;99112.94;;;14.52;77.87
70343;BME280;57767;42.068;24.752;2023-05-07T02:35:30;99138.88;;;14.68;77.73
70343;BME280;57767;42.068;24.752;2023-05-07T02:36:32;99127.75;;;14.60;77.58
70343;BME280;57767;42.068;24.752;2023-05-07T02:37:34;99134.81;;;14.66;77.46
70343;BME280;57767;42.068;24.752;2023-05-07T02:38:36;99131.34;;;14.65;77.37
70343;BME280;57767;42.068;24.752;2023-05-07T02:39:38;99130.19;;;14.61;77.56
70343;BME280;57767;42.068;24.752;2023-05-07T02:40:39;99129.38;;;14.61;77.49
70343;BME280;57767;42.068;24.752;2023-05-07T02:41:41;99142.81;;;14.66;77.18
70343;BME280;57767;42.068;24.752;2023-05-07T02:42:43;99145.25;;;14.67;77.14
70343;BME280;57767;42.068;24.752;2023-05-07T02:43:45;99142.56;;;14.67;77.04
70343;BME280;57767;42.068;24.752;2023-05-07T02:44:47;99143.13;;;14.69;77.17
70343;BME280;57767;42.068;24.752;2023-05-07T02:45:48;99150.34;;;14.69;77.07
70343;BME280;57767;42.068;24.752;2023-05-07T02:46:50;99143.38;;;14.68;76.95
70343;BME280;57767;42.068;24.752;2023-05-07T02:47:52;99137.47;;;14.66;76.90
70343;BME280;57767;42.068;24.752;2023-05-07T02:48:54;99143.38;;;14.68;77.11
70343;BME280;57767;42.068;24.752;2023-05-07T02:49:56;99140.72;;;14.68;77.23
70343;BME280;57767;42.068;24.752;2023-05-07T02:50:58;99138.06;;;14.68;77.04
70343;BME280;57767;42.068;24.752;2023-05-07T02:52:00;99138.28;;;14.66;77.18
70343;BME280;57767;42.068;24.752;2023-05-07T02:53:02;99136.69;;;14.65;77.00
70343;BME280;57767;42.068;24.752;2023-05-07T02:54:03;99133.88;;;14.60;77.05
70343;BME280;57767;42.068;24.752;2023-05-07T02:55:06;99131.00;;;14.62;76.57
70343;BME280;57767;42.068;24.752;2023-05-07T02:56:08;99140.59;;;14.63;76.90
70343;BME280;57767;42.068;24.752;2023-05-07T02:57:10;99136.09;;;14.63;77.16
70343;BME280;57767;42.068;24.752;2023-05-07T02:58:11;99127.75;;;14.60;76.97
70343;BME280;57767;42.068;24.752;2023-05-07T02:59:13;99137.13;;;14.62;76.68
70343;BME280;57767;42.068;24.752;2023-05-07T03:00:17;99141.25;;;14.58;77.14
70343;BME280;57767;42.068;24.752;2023-05-07T03:01:19;99137.44;;;14.54;77.04
70343;BME280;57767;42.068;24.752;2023-05-07T03:02:22;99133.75;;;14.55;76.68
70343;BME280;57767;42.068;24.752;2023-05-07T03:03:24;99135.84;;;14.53;77.13
70343;BME280;57767;42.068;24.752;2023-05-07T03:04:25;99135.25;;;14.51;76.73
70343;BME280;57767;42.068;24.752;2023-05-07T03:05:27;99141.38;;;14.52;76.91
70343;BME280;57767;42.068;24.752;2023-05-07T03:06:29;99129.34;;;14.49;77.02
70343;BME280;57767;42.068;24.752;2023-05-07T03:07:31;99132.00;;;14.49;77.14
70343;BME280;57767;42.068;24.752;2023-05-07T03:08:32;99133.25;;;14.47;77.17
70343;BME280;57767;42.068;24.752;2023-05-07T03:09:34;99125.16;;;14.42;77.02
70343;BME280;57767;42.068;24.752;2023-05-07T03:10:36;99131.41;;;14.47;77.07
70343;BME280;57767;42.068;24.752;2023-05-07T03:11:38;99133.72;;;14.44;76.93
70343;BME280;57767;42.068;24.752;2023-05-07T03:12:40;99129.03;;;14.39;76.75
70343;BME280;57767;42.068;24.752;2023-05-07T03:13:42;99130.09;;;14.38;77.07
70343;BME280;57767;42.068;24.752;2023-05-07T03:14:43;99128.91;;;14.34;77.55
70343;BME280;57767;42.068;24.752;2023-05-07T03:15:45;99121.03;;;14.27;77.42
70343;BME280;57767;42.068;24.752;2023-05-07T03:16:47;99126.13;;;14.29;77.30
70343;BME280;57767;42.068;24.752;2023-05-07T03:25:59;99138.00;;;13.78;77.43
70343;BME280;57767;42.068;24.752;2023-05-07T03:27:01;99131.72;;;13.73;78.45
70343;BME280;57767;42.068;24.752;2023-05-07T03:28:03;99125.69;;;13.66;79.12
70343;BME280;57767;42.068;24.752;2023-05-07T03:29:05;99130.53;;;13.69;79.35
70343;BME280;57767;42.068;24.752;2023-05-07T03:30:08;99134.59;;;13.71;79.46
70343;BME280;57767;42.068;24.752;2023-05-07T03:31:10;99130.78;;;13.67;79.49
70343;BME280;57767;42.068;24.752;2023-05-07T03:32:12;99129.28;;;13.71;79.83
70343;BME280;57767;42.068;24.752;2023-05-07T03:33:14;99136.59;;;13.76;80.04
70343;BME280;57767;42.068;24.752;2023-05-07T03:34:16;99129.88;;;13.73;79.94
70343;BME280;57767;42.068;24.752;2023-05-07T03:35:18;99139.03;;;13.77;79.76
70343;BME280;57767;42.068;24.752;2023-05-07T03:36:20;99140.28;;;13.75;79.71
70343;BME280;57767;42.068;24.752;2023-05-07T03:37:22;99140.66;;;13.78;79.42
70343;BME280;57767;42.068;24.752;2023-05-07T03:38:24;99138.81;;;13.79;79.86
70343;BME280;57767;42.068;24.752;2023-05-07T03:39:26;99139.63;;;13.79;79.82
70343;BME280;57767;42.068;24.752;2023-05-07T03:40:27;99132.47;;;13.80;79.57
70343;BME280;57767;42.068;24.752;2023-05-07T03:41:30;99135.47;;;13.83;79.49
70343;BME280;57767;42.068;24.752;2023-05-07T03:42:32;99135.63;;;13.88;79.67
70343;BME280;57767;42.068;24.752;2023-05-07T03:43:33;99142.94;;;13.93;79.73
70343;BME280;57767;42.068;24.752;2023-05-07T03:44:35;99144.91;;;13.97;80.28
70343;BME280;57767;42.068;24.752;2023-05-07T03:45:37;99147.72;;;14.03;80.67
70343;BME280;57767;42.068;24.752;2023-05-07T03:46:39;99138.84;;;14.09;80.73
70343;BME280;57767;42.068;24.752;2023-05-07T03:47:41;99143.72;;;14.12;80.64
70343;BME280;57767;42.068;24.752;2023-05-07T03:48:43;99118.06;;;14.06;80.88
70343;BME280;57767;42.068;24.752;2023-05-07T03:49:44;99127.59;;;14.25;80.80
70343;BME280;57767;42.068;24.752;2023-05-07T03:50:46;99134.22;;;14.34;81.55
70343;BME280;57767;42.068;24.752;2023-05-07T03:51:49;99144.34;;;14.44;80.98
70343;BME280;57767;42.068;24.752;2023-05-07T03:52:51;99136.28;;;14.50;80.76
70343;BME280;57767;42.068;24.752;2023-05-07T03:53:52;99147.16;;;14.60;80.98
70343;BME280;57767;42.068;24.752;2023-05-07T03:54:54;99141.53;;;14.68;80.23
70343;BME280;57767;42.068;24.752;2023-05-07T03:55:56;99139.94;;;14.79;79.83
70343;BME280;57767;42.068;24.752;2023-05-07T03:56:57;99138.34;;;14.90;79.62
70343;BME280;57767;42.068;24.752;2023-05-07T03:57:59;99135.47;;;14.91;79.58
70343;BME280;57767;42.068;24.752;2023-05-07T03:59:01;99141.16;;;15.07;78.48
70343;BME280;57767;42.068;24.752;2023-05-07T04:00:03;99144.84;;;15.17;78.15
70343;BME280;57767;42.068;24.752;2023-05-07T04:01:06;99141.72;;;15.20;77.80
70343;BME280;57767;42.068;24.752;2023-05-07T04:02:09;99117.09;;;15.13;77.88
70343;BME280;57767;42.068;24.752;2023-05-07T04:03:10;99136.88;;;15.40;77.26
70343;BME280;57767;42.068;24.752;2023-05-07T04:04:12;99138.13;;;15.50;77.65
70343;BME280;57767;42.068;24.752;2023-05-07T04:05:14;99139.69;;;15.57;77.28
70343;BME280;57767;42.068;24.752;2023-05-07T04:06:16;99143.13;;;15.69;76.24
70343;BME280;57767;42.068;24.752;2023-05-07T04:07:22;99136.63;;;15.77;75.55
70343;BME280;57767;42.068;24.752;2023-05-07T04:08:24;99139.03;;;15.90;75.52
70343;BME280;57767;42.068;24.752;2023-05-07T04:09:25;99141.31;;;15.98;75.57
70343;BME280;57767;42.068;24.752;2023-05-07T04:10:29;99141.88;;;16.12;75.50
70343;BME280;57767;42.068;24.752;2023-05-07T04:11:31;99146.13;;;16.25;74.00
70343;BME280;57767;42.068;24.752;2023-05-07T04:12:33;99147.44;;;16.39;73.93
70343;BME280;57767;42.068;24.752;2023-05-07T04:13:35;99146.59;;;16.50;73.08
70343;BME280;57767;42.068;24.752;2023-05-07T04:14:36;99138.53;;;16.62;72.31
70343;BME280;57767;42.068;24.752;2023-05-07T04:15:38;99138.03;;;16.76;73.30
70343;BME280;57767;42.068;24.752;2023-05-07T04:16:40;99141.19;;;16.90;72.45
70343;BME280;57767;42.068;24.752;2023-05-07T04:17:42;99135.78;;;17.02;71.62
70343;BME280;57767;42.068;24.752;2023-05-07T04:18:44;99131.72;;;17.16;71.80
70343;BME280;57767;42.068;24.752;2023-05-07T04:19:46;99135.44;;;17.32;71.12
70343;BME280;57767;42.068;24.752;2023-05-07T04:20:48;99138.88;;;17.49;70.41
70343;BME280;57767;42.068;24.752;2023-05-07T04:21:53;99127.03;;;17.62;68.58
70343;BME280;57767;42.068;24.752;2023-05-07T04:22:55;99129.94;;;17.77;68.34
70343;BME280;57767;42.068;24.752;2023-05-07T04:23:57;99130.63;;;17.89;67.79
70343;BME280;57767;42.068;24.752;2023-05-07T04:24:58;99131.63;;;18.05;67.43
70343;BME280;57767;42.068;24.752;2023-05-07T04:26:01;99132.63;;;18.20;66.90
70343;BME280;57767;42.068;24.752;2023-05-07T04:27:04;99130.94;;;18.36;66.34
70343;BME280;57767;42.068;24.752;2023-05-07T04:28:07;99132.94;;;18.51;65.87
70343;BME280;57767;42.068;24.752;2023-05-07T04:29:09;99125.91;;;18.67;65.77
70343;BME280;57767;42.068;24.752;2023-05-07T04:30:11;99134.31;;;18.80;65.59
70343;BME280;57767;42.068;24.752;2023-05-07T04:31:14;99133.63;;;18.95;65.56
70343;BME280;57767;42.068;24.752;2023-05-07T04:32:16;99120.88;;;19.07;64.83
70343;BME280;57767;42.068;24.752;2023-05-07T04:33:19;99132.53;;;19.23;64.72
70343;BME280;57767;42.068;24.752;2023-05-07T04:34:20;99133.66;;;19.32;63.22
70343;BME280;57767;42.068;24.752;2023-05-07T04:35:22;99129.19;;;19.48;63.05
70343;BME280;57767;42.068;24.752;2023-05-07T04:36:24;99137.56;;;19.56;63.31
70343;BME280;57767;42.068;24.752;2023-05-07T04:37:29;99129.03;;;19.64;63.74
70343;BME280;57767;42.068;24.752;2023-05-07T04:38:33;99134.19;;;19.76;62.80
70343;BME280;57767;42.068;24.752;2023-05-07T04:39:34;99132.34;;;19.82;62.70
70343;BME280;57767;42.068;24.752;2023-05-07T04:40:36;99140.44;;;19.92;61.29
70343;BME280;57767;42.068;24.752;2023-05-07T04:41:38;99136.16;;;19.96;61.30
70343;BME280;57767;42.068;24.752;2023-05-07T04:42:40;99133.53;;;20.06;61.79
70343;BME280;57767;42.068;24.752;2023-05-07T04:43:42;99141.59;;;20.16;61.00
70343;BME280;57767;42.068;24.752;2023-05-07T04:44:44;99133.03;;;20.19;60.21
70343;BME280;57767;42.068;24.752;2023-05-07T04:45:46;99142.72;;;20.25;60.24
70343;BME280;57767;42.068;24.752;2023-05-07T04:46:48;99139.78;;;20.32;60.83
70343;BME280;57767;42.068;24.752;2023-05-07T04:47:50;99142.75;;;20.41;60.20
70343;BME280;57767;42.068;24.752;2023-05-07T04:48:52;99137.97;;;20.53;60.42
70343;BME280;57767;42.068;24.752;2023-05-07T04:49:54;99142.81;;;20.61;57.70
70343;BME280;57767;42.068;24.752;2023-05-07T04:50:56;99140.69;;;20.73;58.24
70343;BME280;57767;42.068;24.752;2023-05-07T04:51:57;99134.50;;;20.78;59.24
70343;BME280;57767;42.068;24.752;2023-05-07T04:52:59;99143.38;;;20.98;57.62
70343;BME280;57767;42.068;24.752;2023-05-07T04:54:01;99145.50;;;21.17;57.70
70343;BME280;57767;42.068;24.752;2023-05-07T04:55:03;99150.91;;;21.32;56.34
70343;BME280;57767;42.068;24.752;2023-05-07T04:56:05;99147.94;;;21.49;56.50
70343;BME280;57767;42.068;24.752;2023-05-07T04:57:07;99159.19;;;21.61;55.08
70343;BME280;57767;42.068;24.752;2023-05-07T04:58:08;99155.66;;;21.75;53.91
70343;BME280;57767;42.068;24.752;2023-05-07T04:59:10;99149.72;;;21.89;53.32
70343;BME280;57767;42.068;24.752;2023-05-07T05:00:12;99157.19;;;21.97;53.26
70343;BME280;57767;42.068;24.752;2023-05-07T05:01:18;99150.72;;;22.08;53.95
70343;BME280;57767;42.068;24.752;2023-05-07T05:02:19;99156.84;;;22.24;54.44
70343;BME280;57767;42.068;24.752;2023-05-07T05:03:21;99163.25;;;22.38;54.29
70343;BME280;57767;42.068;24.752;2023-05-07T05:04:23;99160.75;;;22.46;52.43
70343;BME280;57767;42.068;24.752;2023-05-07T05:05:25;99155.63;;;22.50;52.13
70343;BME280;57767;42.068;24.752;2023-05-07T05:06:27;99160.41;;;22.58;52.76
70343;BME280;57767;42.068;24.752;2023-05-07T05:07:29;99161.44;;;22.67;52.46
70343;BME280;57767;42.068;24.752;2023-05-07T05:08:30;99164.09;;;22.77;52.04
70343;BME280;57767;42.068;24.752;2023-05-07T05:09:32;99155.44;;;22.85;51.17
70343;BME280;57767;42.068;24.752;2023-05-07T05:10:34;99158.84;;;22.96;51.75
70343;BME280;57767;42.068;24.752;2023-05-07T05:11:36;99156.06;;;23.06;51.92
70343;BME280;57767;42.068;24.752;2023-05-07T05:12:37;99154.94;;;23.12;48.50
70343;BME280;57767;42.068;24.752;2023-05-07T05:13:40;99162.94;;;23.22;49.85
70343;BME280;57767;42.068;24.752;2023-05-07T05:14:41;99168.47;;;23.36;49.53
70343;BME280;57767;42.068;24.752;2023-05-07T05:15:44;99168.16;;;23.43;48.91
70343;BME280;57767;42.068;24.752;2023-05-07T05:16:47;99164.22;;;23.59;48.86
70343;BME280;57767;42.068;24.752;2023-05-07T05:17:48;99164.63;;;23.71;49.00
70343;BME280;57767;42.068;24.752;2023-05-07T05:18:50;99162.13;;;23.80;48.31
70343;BME280;57767;42.068;24.752;2023-05-07T05:19:53;99160.75;;;23.82;48.10
70343;BME280;57767;42.068;24.752;2023-05-07T05:20:55;99167.47;;;23.85;47.16
70343;BME280;57767;42.068;24.752;2023-05-07T05:21:57;99165.00;;;23.88;47.05
70343;BME280;57767;42.068;24.752;2023-05-07T05:22:58;99163.25;;;23.98;47.31
70343;BME280;57767;42.068;24.752;2023-05-07T05:24:00;99173.19;;;24.02;46.19
70343;BME280;57767;42.068;24.752;2023-05-07T05:25:02;99168.13;;;23.96;45.66
70343;BME280;57767;42.068;24.752;2023-05-07T05:26:04;99172.81;;;23.90;45.86
70343;BME280;57767;42.068;24.752;2023-05-07T05:27:06;99172.97;;;23.99;46.73
70343;BME280;57767;42.068;24.752;2023-05-07T05:28:07;99165.34;;;24.06;46.57
70343;BME280;57767;42.068;24.752;2023-05-07T05:29:09;99169.63;;;24.07;47.27
70343;BME280;57767;42.068;24.752;2023-05-07T05:30:12;99164.19;;;24.12;47.74
70343;BME280;57767;42.068;24.752;2023-05-07T05:31:14;99163.22;;;24.26;45.15
70343;BME280;57767;42.068;24.752;2023-05-07T05:32:16;99168.75;;;24.35;45.06
70343;BME280;57767;42.068;24.752;2023-05-07T05:33:17;99162.28;;;24.36;45.91
70343;BME280;57767;42.068;24.752;2023-05-07T05:34:19;99175.91;;;24.45;45.03